createdAt,value
2022-08-26T00:00:01.283Z,34.90
2022-08-26T00:02:03.690Z,38.10
2022-08-26T00:04:06.951Z,40.40
2022-08-26T00:06:10.390Z,42.10
2022-08-26T00:08:16.769Z,42.30
2022-08-26T00:10:20.693Z,45.80
2022-08-26T00:12:34.366Z,46.50
2022-08-26T00:14:40.883Z,47.80
2022-08-26T00:16:48.161Z,46.00
2022-08-26T00:18:54.140Z,41.40
2022-08-26T00:20:56.195Z,41.20
2022-08-26T00:22:58.562Z,44.40
2022-08-26T00:25:02.711Z,46.70
2022-08-26T00:27:08.369Z,46.90
2022-08-26T00:29:13.341Z,51.10
2022-08-26T00:31:16.034Z,52.10
2022-08-26T00:33:19.943Z,54.80
2022-08-26T00:35:23.505Z,54.70
2022-08-26T00:37:25.706Z,56.00
2022-08-26T00:39:27.440Z,57.20
2022-08-26T00:41:30.200Z,57.30
2022-08-26T00:43:46.107Z,59.70
2022-08-26T00:46:09.740Z,59.60
2022-08-26T00:48:12.517Z,61.90
2022-08-26T00:50:20.189Z,64.50
2022-08-26T00:52:23.718Z,64.80
2022-08-26T00:54:32.244Z,66.90
2022-08-26T00:56:47.008Z,67.20
2022-08-26T00:58:51.720Z,65.70
2022-08-26T01:00:54.012Z,63.60
2022-08-26T01:02:57.884Z,66.70
2022-08-26T01:05:03.431Z,66.20
2022-08-26T01:07:07.374Z,66.80
2022-08-26T01:09:10.760Z,66.60
2022-08-26T01:11:12.935Z,72.20
2022-08-26T01:13:15.731Z,78.10
2022-08-26T01:15:24.590Z,78.90
2022-08-26T01:17:26.527Z,82.70
2022-08-26T01:19:33.906Z,88.90
2022-08-26T01:21:54.943Z,88.60
2022-08-26T01:23:57.902Z,85.70
2022-08-26T01:26:18.242Z,86.80
2022-08-26T01:28:27.370Z,87.50
2022-08-26T01:30:31.769Z,85.70
2022-08-26T01:32:36.204Z,88.30
2022-08-26T01:34:41.184Z,90.40
2022-08-26T01:36:45.962Z,92.50
2022-08-26T01:38:51.265Z,93.00
2022-08-26T01:40:53.640Z,91.70
2022-08-26T01:42:56.895Z,92.70
2022-08-26T01:45:12.102Z,94.30
2022-08-26T01:47:16.625Z,92.90
2022-08-26T01:49:21.901Z,93.80
2022-08-26T01:51:26.339Z,96.30
2022-08-26T01:53:28.821Z,97.70
2022-08-26T01:55:32.936Z,98.30
2022-08-26T01:57:36.074Z,99.90
2022-08-26T01:59:38.790Z,99.90
2022-08-26T02:01:41.469Z,99.90
2022-08-26T02:04:10.822Z,99.90
2022-08-26T02:06:12.961Z,99.90
2022-08-26T02:08:24.641Z,99.90
2022-08-26T02:10:27.771Z,99.90
2022-08-26T02:12:31.134Z,99.90
2022-08-26T02:14:43.941Z,99.90
2022-08-26T02:16:48.916Z,99.90
2022-08-26T02:18:53.803Z,99.90
2022-08-26T02:20:56.944Z,99.90
2022-08-26T02:22:58.860Z,99.90
2022-08-26T02:25:20.876Z,99.90
2022-08-26T02:27:32.286Z,99.90
2022-08-26T02:29:41.271Z,99.90
2022-08-26T02:31:43.854Z,99.90
2022-08-26T02:33:46.169Z,99.90
2022-08-26T02:35:48.096Z,99.90
2022-08-26T02:37:52.784Z,99.90
2022-08-26T02:39:54.534Z,99.90
2022-08-26T02:41:57.094Z,99.90
2022-08-26T02:43:59.948Z,99.90
2022-08-26T02:46:02.308Z,99.90
2022-08-26T02:48:12.938Z,99.90
2022-08-26T02:50:21.889Z,99.90
2022-08-26T02:52:23.958Z,99.90
2022-08-26T02:54:25.774Z,99.90
2022-08-26T02:56:27.914Z,99.90
2022-08-26T02:58:29.624Z,99.90
2022-08-26T03:00:31.917Z,99.90
2022-08-26T03:02:34.100Z,99.90
2022-08-26T03:04:35.974Z,99.90
2022-08-26T03:06:38.261Z,99.90
2022-08-26T03:08:40.885Z,99.90
2022-08-26T03:10:43.649Z,99.90
2022-08-26T03:12:47.340Z,99.90
2022-08-26T03:14:49.885Z,99.90
2022-08-26T03:16:53.898Z,99.90
2022-08-26T03:18:55.808Z,99.90
2022-08-26T03:20:58.902Z,99.90
2022-08-26T03:23:00.574Z,99.90
2022-08-26T03:25:06.689Z,99.90
2022-08-26T03:27:09.009Z,99.90
2022-08-26T03:29:29.354Z,99.90
2022-08-26T03:31:34.931Z,99.90
2022-08-26T03:33:36.945Z,99.90
2022-08-26T03:35:41.995Z,99.90
2022-08-26T03:37:43.738Z,99.90
2022-08-26T03:39:46.793Z,99.90
2022-08-26T03:41:48.553Z,99.90
2022-08-26T03:43:51.082Z,99.90
2022-08-26T03:45:52.747Z,99.90
2022-08-26T03:47:54.450Z,99.90
2022-08-26T03:50:01.000Z,99.90
2022-08-26T03:52:03.926Z,99.90
2022-08-26T03:54:08.197Z,99.90
2022-08-26T03:56:10.438Z,99.90
2022-08-26T03:58:12.938Z,99.90
2022-08-26T04:00:18.472Z,99.90
2022-08-26T04:02:20.424Z,99.90
2022-08-26T04:04:24.537Z,99.90
2022-08-26T04:06:43.230Z,99.90
2022-08-26T04:08:46.465Z,99.90
2022-08-26T04:10:48.943Z,99.90
2022-08-26T04:12:53.337Z,99.90
2022-08-26T04:14:55.002Z,99.90
2022-08-26T04:16:59.950Z,99.90
2022-08-26T04:19:01.801Z,99.90
2022-08-26T04:21:04.923Z,99.90
2022-08-26T04:23:09.950Z,99.90
2022-08-26T04:25:12.442Z,99.90
2022-08-26T04:27:14.206Z,99.90
2022-08-26T04:29:20.104Z,99.90
2022-08-26T04:31:23.000Z,99.90
2022-08-26T04:33:32.513Z,99.90
2022-08-26T04:35:36.969Z,99.90
2022-08-26T04:37:43.056Z,99.90
2022-08-26T04:39:44.882Z,99.90
2022-08-26T04:41:50.710Z,99.90
2022-08-26T04:43:52.735Z,99.90
2022-08-26T04:45:55.425Z,99.90
2022-08-26T04:47:58.418Z,99.90
2022-08-26T04:50:01.909Z,99.90
2022-08-26T04:52:05.378Z,99.90
2022-08-26T04:54:07.480Z,99.90
2022-08-26T04:56:09.968Z,99.90
2022-08-26T04:58:15.502Z,99.90
2022-08-26T05:00:17.525Z,99.90
2022-08-26T05:02:20.080Z,99.90
2022-08-26T05:04:22.149Z,99.90
2022-08-26T05:06:24.216Z,99.90
2022-08-26T05:08:27.293Z,99.90
2022-08-26T05:10:29.243Z,99.90
2022-08-26T05:12:31.544Z,99.90
2022-08-26T05:14:34.527Z,99.90
2022-08-26T05:16:40.425Z,99.90
2022-08-26T05:18:43.633Z,99.90
2022-08-26T05:20:49.058Z,99.90
2022-08-26T05:22:50.977Z,99.90
2022-08-26T05:24:53.313Z,99.90
2022-08-26T05:26:56.435Z,99.90
2022-08-26T05:29:00.024Z,99.90
2022-08-26T05:31:12.088Z,99.90
2022-08-26T05:33:14.311Z,99.60
2022-08-26T05:35:17.189Z,94.40
2022-08-26T05:37:19.419Z,79.70
2022-08-26T05:39:23.448Z,68.70
2022-08-26T05:41:36.612Z,63.70
2022-08-26T05:43:40.997Z,60.50
2022-08-26T05:45:47.319Z,67.50
2022-08-26T05:47:48.977Z,53.60
2022-08-26T05:49:53.106Z,39.00
2022-08-26T05:51:54.846Z,40.00
2022-08-26T05:53:57.031Z,36.00
2022-08-26T05:56:00.464Z,22.70
2022-08-26T05:58:02.791Z,1.00
2022-08-26T06:00:06.046Z,1.00
2022-08-26T06:02:08.182Z,1.00
2022-08-26T06:04:11.685Z,1.00
2022-08-26T06:06:27.339Z,1.00
2022-08-26T06:08:30.747Z,1.00
2022-08-26T06:10:33.339Z,1.00
2022-08-26T06:12:36.076Z,1.00
2022-08-26T06:14:38.038Z,1.00
2022-08-26T06:16:43.735Z,1.00
2022-08-26T06:18:47.953Z,1.00
2022-08-26T06:20:57.043Z,1.00
2022-08-26T06:23:19.027Z,1.00
2022-08-26T06:25:38.766Z,1.00
2022-08-26T06:27:40.438Z,1.00
2022-08-26T06:29:43.029Z,1.00
2022-08-26T06:31:45.109Z,1.00
2022-08-26T06:33:46.930Z,1.00
2022-08-26T06:35:51.038Z,1.00
2022-08-26T06:37:53.068Z,1.00
2022-08-26T06:39:54.769Z,1.00
2022-08-26T06:41:57.037Z,1.00
2022-08-26T06:44:00.338Z,1.00
2022-08-26T06:46:04.960Z,99.90
2022-08-26T06:48:08.056Z,99.90
2022-08-26T06:50:11.602Z,99.90
2022-08-26T06:52:13.727Z,99.90
2022-08-26T06:54:15.493Z,99.90
2022-08-26T06:56:25.243Z,85.90
2022-08-26T06:58:28.258Z,1.00
2022-08-26T07:00:32.457Z,1.00
2022-08-26T07:02:34.877Z,99.90
2022-08-26T07:04:37.156Z,99.90
2022-08-26T07:06:40.618Z,99.90
2022-08-26T07:08:42.573Z,99.90
2022-08-26T07:10:45.058Z,96.60
2022-08-26T07:12:49.379Z,99.90
2022-08-26T07:14:51.619Z,99.90
2022-08-26T07:16:55.737Z,99.90
2022-08-26T07:18:58.084Z,98.80
2022-08-26T07:21:07.218Z,96.50
2022-08-26T07:23:11.784Z,99.90
2022-08-26T07:25:13.594Z,1.00
2022-08-26T07:27:17.069Z,99.90
2022-08-26T07:29:19.092Z,99.90
2022-08-26T07:31:24.546Z,1.00
2022-08-26T07:33:27.087Z,99.90
2022-08-26T07:35:30.093Z,99.90
2022-08-26T07:37:35.518Z,99.90
2022-08-26T07:39:43.170Z,99.90
2022-08-26T07:41:48.135Z,99.90
2022-08-26T07:43:52.838Z,99.90
2022-08-26T07:45:55.758Z,87.30
2022-08-26T07:47:58.093Z,13.50
2022-08-26T07:50:01.114Z,9.00
2022-08-26T07:52:04.905Z,99.90
2022-08-26T07:54:07.201Z,99.90
2022-08-26T07:56:08.997Z,99.90
2022-08-26T07:58:13.370Z,80.10
2022-08-26T08:00:18.104Z,98.90
2022-08-26T08:02:20.006Z,17.20
2022-08-26T08:04:26.218Z,1.00
2022-08-26T08:06:29.121Z,1.00
2022-08-26T08:08:31.308Z,1.00
2022-08-26T08:10:36.470Z,1.00
2022-08-26T08:12:39.181Z,1.00
2022-08-26T08:14:42.129Z,1.00
2022-08-26T08:16:46.773Z,1.00
2022-08-26T08:18:48.981Z,1.00
2022-08-26T08:20:59.401Z,1.00
2022-08-26T08:23:06.866Z,1.00
2022-08-26T08:25:10.383Z,1.00
2022-08-26T08:27:12.339Z,1.00
2022-08-26T08:29:16.131Z,1.00
2022-08-26T08:31:45.151Z,1.00
2022-08-26T08:33:44.353Z,1.00
2022-08-26T08:35:46.662Z,1.00
2022-08-26T08:37:54.035Z,1.00
2022-08-26T08:39:56.176Z,1.00
2022-08-26T08:42:06.747Z,1.00
2022-08-26T08:44:21.672Z,1.00
2022-08-26T08:46:25.150Z,1.00
2022-08-26T08:48:31.756Z,1.00
2022-08-26T08:50:40.154Z,1.00
2022-08-26T08:52:45.409Z,1.00
2022-08-26T08:54:48.149Z,1.00
2022-08-26T08:57:04.239Z,1.00
2022-08-26T08:59:24.205Z,1.00
2022-08-26T09:01:31.230Z,1.00
2022-08-26T09:04:17.198Z,1.00
2022-08-26T09:06:20.967Z,1.00
2022-08-26T09:08:28.360Z,1.00
2022-08-26T09:10:55.220Z,1.00
2022-08-26T09:12:59.981Z,1.00
2022-08-26T09:15:16.948Z,1.00
2022-08-26T09:18:00.194Z,1.00
2022-08-26T09:20:33.585Z,1.00
2022-08-26T09:22:38.188Z,1.00
2022-08-26T09:24:48.561Z,1.00
2022-08-26T09:26:53.166Z,1.00
2022-08-26T09:28:55.299Z,1.00
2022-08-26T09:31:21.820Z,1.00
2022-08-26T09:33:30.379Z,1.00
2022-08-26T09:35:35.972Z,1.00
2022-08-26T09:39:55.006Z,1.00
2022-08-26T09:42:23.009Z,1.00
2022-08-26T09:44:25.202Z,1.00
2022-08-26T09:46:28.727Z,1.00
2022-08-26T09:48:36.634Z,1.00
2022-08-26T09:50:57.310Z,1.00
2022-08-26T09:53:25.127Z,1.00
2022-08-26T09:55:31.209Z,1.00
2022-08-26T09:57:35.682Z,1.00
2022-08-26T09:59:38.013Z,1.00
2022-08-26T10:01:44.887Z,1.00
2022-08-26T10:03:47.264Z,1.00
2022-08-26T10:06:07.294Z,1.00
2022-08-26T10:08:24.773Z,1.00
2022-08-26T10:10:31.138Z,1.00
2022-08-26T10:12:39.250Z,1.00
2022-08-26T10:14:49.596Z,1.00
2022-08-26T10:17:06.951Z,1.00
2022-08-26T10:19:15.103Z,1.00
2022-08-26T10:21:56.240Z,1.00
2022-08-26T10:24:02.169Z,1.00
2022-08-26T10:26:26.262Z,1.00
2022-08-26T10:28:41.461Z,1.00
2022-08-26T10:30:58.269Z,1.00
2022-08-26T10:33:13.222Z,1.00
2022-08-26T10:35:17.792Z,1.00
2022-08-26T10:37:23.237Z,1.00
2022-08-26T10:39:56.935Z,1.00
2022-08-26T10:42:05.446Z,1.00
2022-08-26T10:44:10.388Z,1.00
2022-08-26T10:46:20.648Z,1.00
2022-08-26T10:48:35.467Z,1.00
2022-08-26T10:50:41.591Z,1.00
2022-08-26T10:53:08.762Z,1.00
2022-08-26T10:55:22.043Z,1.00
2022-08-26T10:57:47.783Z,1.00
2022-08-26T11:00:47.426Z,1.00
2022-08-26T11:02:52.586Z,1.00
2022-08-26T11:05:03.388Z,1.00
2022-08-26T11:07:40.865Z,1.00
2022-08-26T11:09:48.285Z,1.00
2022-08-26T11:11:52.230Z,1.00
2022-08-26T11:13:57.291Z,1.00
2022-08-26T11:16:01.148Z,1.00
2022-08-26T11:18:12.329Z,1.00
2022-08-26T11:20:23.852Z,1.00
2022-08-26T11:22:28.825Z,1.00
2022-08-26T11:24:53.266Z,1.00
2022-08-26T11:26:56.675Z,1.00
2022-08-26T11:29:00.114Z,1.00
2022-08-26T11:31:09.907Z,1.00
2022-08-26T11:33:44.298Z,1.00
2022-08-26T11:35:48.082Z,1.00
2022-08-26T11:37:57.382Z,1.00
2022-08-26T11:40:01.649Z,1.00
2022-08-26T11:42:33.601Z,1.00
2022-08-26T11:44:41.508Z,1.00
2022-08-26T11:46:59.561Z,8.60
2022-08-26T11:49:06.496Z,99.90
2022-08-26T11:51:13.482Z,1.00
2022-08-26T11:53:20.062Z,1.00
2022-08-26T11:55:25.286Z,62.20
2022-08-26T11:57:30.053Z,7.60
2022-08-26T11:59:40.353Z,99.90
2022-08-26T12:01:46.329Z,99.90
2022-08-26T12:03:52.128Z,99.90
2022-08-26T12:05:55.393Z,47.00
2022-08-26T12:08:03.099Z,1.00
2022-08-26T12:10:08.937Z,23.90
2022-08-26T12:12:31.800Z,1.00
2022-08-26T12:14:37.420Z,99.90
2022-08-26T12:16:42.406Z,1.00
2022-08-26T12:18:45.054Z,1.00
2022-08-26T12:20:50.072Z,1.00
2022-08-26T12:22:54.319Z,99.90
2022-08-26T12:24:59.787Z,99.90
2022-08-26T12:27:31.416Z,99.90
2022-08-26T12:29:33.942Z,1.00
2022-08-26T12:31:40.492Z,99.90
2022-08-26T12:33:43.114Z,1.00
2022-08-26T12:35:44.862Z,99.90
2022-08-26T12:37:52.544Z,99.40
2022-08-26T12:39:54.635Z,1.00
2022-08-26T12:42:21.353Z,48.10
2022-08-26T12:44:54.054Z,1.00
2022-08-26T12:47:10.043Z,99.90
2022-08-26T12:49:18.848Z,1.00
2022-08-26T12:51:25.385Z,1.00
2022-08-26T12:53:33.374Z,1.00
2022-08-26T12:55:36.292Z,94.80
2022-08-26T12:57:38.378Z,1.00
2022-08-26T12:59:41.539Z,1.00
2022-08-26T13:01:45.745Z,1.00
2022-08-26T13:03:50.374Z,99.90
2022-08-26T13:05:52.522Z,99.90
2022-08-26T13:08:27.129Z,99.90
2022-08-26T13:10:37.452Z,1.00
2022-08-26T13:12:41.033Z,1.00
2022-08-26T13:14:43.357Z,1.00
2022-08-26T13:16:47.813Z,1.00
2022-08-26T13:18:56.190Z,99.90
2022-08-26T13:20:58.389Z,99.90
2022-08-26T13:23:00.190Z,99.90
2022-08-26T13:25:02.241Z,1.00
2022-08-26T13:27:06.294Z,1.00
2022-08-26T13:29:10.499Z,1.00
2022-08-26T13:31:13.594Z,99.90
2022-08-26T13:33:20.481Z,99.90
2022-08-26T13:35:22.287Z,99.90
2022-08-26T13:37:34.751Z,99.90
2022-08-26T13:39:38.385Z,11.90
2022-08-26T13:41:40.320Z,1.00
2022-08-26T13:43:49.406Z,1.00
2022-08-26T13:45:51.761Z,1.00
2022-08-26T13:47:53.462Z,1.00
2022-08-26T13:49:56.498Z,1.00
2022-08-26T13:52:00.573Z,1.00
2022-08-26T13:54:03.842Z,1.00
2022-08-26T13:56:08.015Z,1.00
2022-08-26T13:58:13.289Z,1.00
2022-08-26T14:00:18.189Z,1.00
2022-08-26T14:02:23.022Z,1.00
2022-08-26T14:04:27.265Z,1.00
2022-08-26T14:06:30.678Z,1.00
2022-08-26T14:08:33.174Z,1.00
2022-08-26T14:10:36.725Z,1.00
2022-08-26T14:12:40.441Z,1.00
2022-08-26T14:14:44.857Z,1.00
2022-08-26T14:16:59.072Z,1.00
2022-08-26T14:19:04.442Z,1.00
2022-08-26T14:21:09.999Z,1.00
2022-08-26T14:23:20.645Z,1.00
2022-08-26T14:25:23.578Z,1.00
2022-08-26T14:27:26.489Z,1.00
2022-08-26T14:29:30.406Z,1.00
2022-08-26T14:31:34.643Z,1.00
2022-08-26T14:33:38.598Z,1.00
2022-08-26T14:35:41.273Z,1.00
2022-08-26T14:37:52.175Z,1.00
2022-08-26T14:39:55.645Z,1.00
2022-08-26T14:41:57.905Z,1.00
2022-08-26T14:44:08.607Z,1.00
2022-08-26T14:46:11.155Z,1.00
2022-08-26T14:48:13.389Z,1.00
2022-08-26T14:50:20.719Z,1.00
2022-08-26T14:52:22.830Z,1.00
2022-08-26T14:54:24.995Z,1.00
2022-08-26T14:56:35.659Z,1.00
2022-08-26T14:58:37.603Z,1.00
2022-08-26T15:00:39.539Z,1.00
2022-08-26T15:02:41.887Z,1.00
2022-08-26T15:04:45.124Z,57.30
2022-08-26T15:06:48.026Z,99.90
2022-08-26T15:08:50.873Z,99.90
2022-08-26T15:10:53.424Z,99.90
2022-08-26T15:12:55.835Z,1.00
2022-08-26T15:14:59.738Z,1.00
2022-08-26T15:17:03.654Z,99.90
2022-08-26T15:19:06.341Z,1.00
2022-08-26T15:21:08.539Z,99.90
2022-08-26T15:23:11.184Z,99.90
2022-08-26T15:25:13.361Z,1.00
2022-08-26T15:27:16.509Z,1.00
2022-08-26T15:29:20.014Z,65.10
2022-08-26T15:31:31.771Z,99.90
2022-08-26T15:33:36.972Z,99.90
2022-08-26T15:35:40.399Z,1.00
2022-08-26T15:37:45.422Z,1.00
2022-08-26T15:39:48.493Z,1.00
2022-08-26T15:41:52.112Z,1.00
2022-08-26T15:43:56.256Z,99.90
2022-08-26T15:46:01.888Z,1.00
2022-08-26T15:48:05.075Z,1.00
2022-08-26T15:50:07.916Z,1.00
2022-08-26T15:52:10.781Z,1.00
2022-08-26T15:54:13.252Z,99.90
2022-08-26T15:56:18.524Z,99.90
2022-08-26T15:58:26.425Z,99.90
2022-08-26T16:00:28.825Z,99.90
2022-08-26T16:02:32.386Z,1.00
2022-08-26T16:04:35.619Z,1.00
2022-08-26T16:06:40.454Z,1.00
2022-08-26T16:08:44.010Z,11.10
2022-08-26T16:10:50.687Z,99.10
2022-08-26T16:12:54.333Z,1.00
2022-08-26T16:14:56.126Z,1.00
2022-08-26T16:16:58.684Z,99.90
2022-08-26T16:19:06.865Z,99.90
2022-08-26T16:21:19.539Z,99.90
2022-08-26T16:23:22.573Z,99.90
2022-08-26T16:25:24.610Z,99.90
2022-08-26T16:27:27.777Z,99.90
2022-08-26T16:29:32.018Z,1.00
2022-08-26T16:31:37.916Z,1.00
2022-08-26T16:33:40.914Z,99.90
2022-08-26T16:35:43.457Z,99.90
2022-08-26T16:37:46.603Z,99.90
2022-08-26T16:39:50.629Z,99.90
2022-08-26T16:41:53.723Z,1.00
2022-08-26T16:43:56.008Z,1.00
2022-08-26T16:45:59.760Z,1.00
2022-08-26T16:48:02.556Z,1.00
2022-08-26T16:50:06.923Z,1.00
2022-08-26T16:52:10.504Z,1.00
2022-08-26T16:54:13.580Z,1.00
2022-08-26T16:56:17.584Z,1.00
2022-08-26T16:58:22.273Z,3.60
2022-08-26T17:00:31.303Z,12.90
2022-08-26T17:02:36.830Z,23.20
2022-08-26T17:04:39.590Z,32.40
2022-08-26T17:06:41.741Z,34.70
2022-08-26T17:08:46.366Z,33.10
2022-08-26T17:10:48.105Z,41.20
2022-08-26T17:12:49.997Z,38.80
2022-08-26T17:14:54.374Z,33.90
2022-08-26T17:16:57.202Z,32.40
2022-08-26T17:19:00.750Z,34.50
2022-08-26T17:21:06.620Z,31.40
2022-08-26T17:23:08.598Z,21.30
2022-08-26T17:25:16.056Z,1.00
2022-08-26T17:27:18.774Z,1.00
2022-08-26T17:29:21.663Z,1.00
2022-08-26T17:31:24.277Z,1.00
2022-08-26T17:33:26.852Z,1.00
2022-08-26T17:35:28.979Z,1.00
2022-08-26T17:37:33.087Z,1.00
2022-08-26T17:39:42.451Z,1.00
2022-08-26T17:41:44.782Z,99.90
2022-08-26T17:43:46.502Z,99.90
2022-08-26T17:45:48.194Z,99.90
2022-08-26T17:47:52.505Z,1.00
2022-08-26T17:49:57.127Z,99.90
2022-08-26T17:52:00.029Z,99.90
2022-08-26T17:54:02.273Z,1.00
2022-08-26T17:56:09.728Z,1.00
2022-08-26T17:58:11.710Z,99.90
2022-08-26T18:00:21.297Z,99.90
2022-08-26T18:02:23.959Z,99.90
2022-08-26T18:04:26.105Z,99.90
2022-08-26T18:06:28.600Z,99.90
2022-08-26T18:08:30.536Z,1.00
2022-08-26T18:10:32.720Z,1.00
2022-08-26T18:12:37.960Z,1.00
2022-08-26T18:14:41.044Z,22.00
2022-08-26T18:16:43.692Z,53.50
2022-08-26T18:18:48.842Z,22.80
2022-08-26T18:20:51.966Z,79.60
2022-08-26T18:23:03.951Z,97.30
2022-08-26T18:25:07.771Z,99.90
2022-08-26T18:27:09.677Z,99.90
2022-08-26T18:29:12.780Z,99.90
2022-08-26T18:31:15.754Z,99.90
2022-08-26T18:33:18.965Z,99.90
2022-08-26T18:35:21.469Z,99.90
2022-08-26T18:37:27.976Z,99.90
2022-08-26T18:39:33.727Z,99.90
2022-08-26T18:41:42.552Z,99.90
2022-08-26T18:43:44.466Z,99.90
2022-08-26T18:45:47.323Z,99.90
2022-08-26T18:47:49.197Z,99.90
2022-08-26T18:49:51.922Z,99.90
2022-08-26T18:51:56.393Z,99.90
2022-08-26T18:54:00.026Z,99.90
2022-08-26T18:56:03.931Z,99.90
2022-08-26T18:58:06.397Z,99.90
2022-08-26T19:00:10.331Z,99.90
2022-08-26T19:02:12.650Z,99.90
2022-08-26T19:04:15.874Z,99.90
2022-08-26T19:06:21.489Z,99.90
2022-08-26T19:08:23.182Z,99.90
2022-08-26T19:10:25.473Z,99.90
2022-08-26T19:12:28.548Z,99.90
2022-08-26T19:14:32.654Z,99.90
2022-08-26T19:16:36.173Z,99.90
2022-08-26T19:18:38.106Z,99.90
2022-08-26T19:20:47.004Z,99.90
2022-08-26T19:22:49.259Z,99.90
2022-08-26T19:24:57.920Z,99.90
2022-08-26T19:27:02.637Z,99.90
2022-08-26T19:29:05.760Z,99.90
2022-08-26T19:31:10.564Z,99.90
2022-08-26T19:33:14.586Z,99.90
2022-08-26T19:35:17.495Z,99.90
2022-08-26T19:37:20.675Z,99.90
2022-08-26T19:39:23.516Z,99.90
2022-08-26T19:41:36.574Z,99.90
2022-08-26T19:43:39.710Z,99.90
2022-08-26T19:45:42.805Z,99.90
2022-08-26T19:47:46.291Z,99.90
2022-08-26T19:49:49.898Z,99.90
2022-08-26T19:51:54.074Z,99.90
2022-08-26T19:53:58.882Z,99.90
2022-08-26T19:56:01.754Z,99.90
2022-08-26T19:58:05.738Z,99.90
2022-08-26T20:00:12.317Z,99.90
2022-08-26T20:02:16.146Z,99.90
2022-08-26T20:04:18.086Z,99.90
2022-08-26T20:06:20.136Z,99.90
2022-08-26T20:08:22.829Z,99.90
2022-08-26T20:10:24.697Z,99.90
2022-08-26T20:12:27.645Z,99.90
2022-08-26T20:14:30.698Z,99.90
2022-08-26T20:16:33.784Z,99.90
2022-08-26T20:18:54.748Z,99.90
2022-08-26T20:21:15.238Z,99.90
2022-08-26T20:23:17.688Z,99.90
2022-08-26T20:25:20.451Z,99.90
2022-08-26T20:27:38.375Z,99.90
2022-08-26T20:29:41.705Z,99.90
2022-08-26T20:31:44.641Z,99.90
2022-08-26T20:33:48.174Z,99.90
2022-08-26T20:35:50.741Z,99.90
2022-08-26T20:37:57.341Z,99.90
2022-08-26T20:40:00.762Z,99.90
2022-08-26T20:42:03.716Z,99.90
2022-08-26T20:44:06.936Z,99.90
2022-08-26T20:46:18.222Z,99.90
2022-08-26T20:48:21.995Z,99.90
2022-08-26T20:50:23.851Z,99.90
2022-08-26T20:52:26.857Z,99.90
2022-08-26T20:54:30.194Z,99.90
2022-08-26T20:56:32.758Z,99.90
2022-08-26T20:58:35.121Z,99.90
2022-08-26T21:00:40.221Z,99.90
2022-08-26T21:02:43.730Z,99.90
2022-08-26T21:04:47.838Z,99.90
2022-08-26T21:06:52.604Z,99.90
2022-08-26T21:08:55.729Z,99.90
2022-08-26T21:10:58.038Z,99.90
2022-08-26T21:13:00.641Z,99.90
2022-08-26T21:15:04.733Z,99.90
2022-08-26T21:17:08.085Z,99.90
2022-08-26T21:19:12.441Z,99.90
2022-08-26T21:21:15.857Z,99.90
2022-08-26T21:23:18.680Z,99.90
2022-08-26T21:25:20.696Z,99.90
2022-08-26T21:27:26.207Z,99.90
2022-08-26T21:29:28.749Z,99.90
2022-08-26T21:31:31.898Z,99.90
2022-08-26T21:33:34.134Z,99.90
2022-08-26T21:35:36.746Z,99.90
2022-08-26T21:37:39.449Z,99.90
2022-08-26T21:39:41.563Z,99.90
2022-08-26T21:41:45.788Z,99.90
2022-08-26T21:43:50.837Z,99.90
2022-08-26T21:45:53.714Z,99.90
2022-08-26T21:47:55.898Z,99.90
2022-08-26T21:49:58.927Z,99.90
2022-08-26T21:52:04.796Z,99.90
2022-08-26T21:54:11.009Z,99.90
2022-08-26T21:56:16.743Z,99.90
2022-08-26T21:58:20.317Z,99.90
2022-08-26T22:00:24.758Z,99.90
2022-08-26T22:02:27.405Z,99.90
2022-08-26T22:04:30.126Z,99.90
2022-08-26T22:06:33.769Z,99.90
2022-08-26T22:08:36.762Z,99.90
2022-08-26T22:10:41.441Z,99.90
2022-08-26T22:12:44.784Z,99.90
2022-08-26T22:14:47.083Z,99.90
2022-08-26T22:16:50.869Z,99.90
2022-08-26T22:18:53.602Z,99.90
2022-08-26T22:21:00.960Z,99.90
2022-08-26T22:23:02.984Z,99.90
2022-08-26T22:25:05.461Z,99.90
2022-08-26T22:27:08.788Z,99.90
2022-08-26T22:29:10.814Z,99.90
2022-08-26T22:31:14.617Z,99.90
2022-08-26T22:33:20.188Z,99.90
2022-08-26T22:35:29.160Z,99.90
2022-08-26T22:37:32.888Z,99.90
2022-08-26T22:39:35.776Z,99.90
2022-08-26T22:41:37.773Z,99.90
2022-08-26T22:43:39.718Z,99.90
2022-08-26T22:45:45.712Z,99.90
2022-08-26T22:47:47.717Z,99.90
2022-08-26T22:49:49.606Z,99.90
2022-08-26T22:51:53.226Z,99.90
2022-08-26T22:53:55.804Z,99.90
2022-08-26T22:55:58.881Z,99.90
2022-08-26T22:58:04.322Z,99.90
2022-08-26T23:00:07.794Z,99.90
2022-08-26T23:02:13.509Z,99.90
2022-08-26T23:04:16.145Z,99.90
2022-08-26T23:06:19.131Z,99.90
2022-08-26T23:08:27.224Z,99.90
2022-08-26T23:10:29.698Z,99.90
2022-08-26T23:12:33.002Z,99.90
2022-08-26T23:14:35.262Z,99.90
2022-08-26T23:16:41.496Z,99.90
2022-08-26T23:18:43.807Z,99.90
2022-08-26T23:20:47.801Z,99.90
2022-08-26T23:22:49.760Z,99.90
2022-08-26T23:24:53.826Z,99.90
2022-08-26T23:26:56.463Z,99.90
2022-08-26T23:28:58.543Z,99.90
2022-08-26T23:31:00.817Z,99.90
2022-08-26T23:33:03.014Z,99.90
2022-08-26T23:35:06.031Z,99.90
2022-08-26T23:37:09.129Z,99.90
2022-08-26T23:39:11.822Z,99.90
2022-08-26T23:41:13.545Z,99.90
2022-08-26T23:43:18.722Z,99.90
2022-08-26T23:45:21.954Z,99.90
2022-08-26T23:47:23.735Z,99.90
2022-08-26T23:49:26.252Z,99.90
2022-08-26T23:51:47.012Z,99.90
2022-08-26T23:53:50.834Z,99.90
2022-08-26T23:55:52.954Z,99.90
2022-08-26T23:57:54.848Z,99.90
2022-08-26T23:59:56.533Z,99.90
